createdAt,value
2017-08-09T00:00:21.018Z,85.4
2017-08-09T00:01:22.412Z,84.9
2017-08-09T00:02:23.788Z,85.7
2017-08-09T00:03:26.172Z,85.0
2017-08-09T00:04:27.552Z,84.7
2017-08-09T00:05:28.924Z,85.7
2017-08-09T00:06:30.304Z,84.7
2017-08-09T00:07:31.687Z,85.9
2017-08-09T00:08:33.056Z,85.9
2017-08-09T00:09:34.449Z,85.6
2017-08-09T00:10:35.853Z,84.6
2017-08-09T00:11:37.229Z,84.9
2017-08-09T00:12:38.610Z,85.6
2017-08-09T00:13:39.988Z,84.5
2017-08-09T00:14:41.365Z,84.7
2017-08-09T00:15:42.738Z,85.1
2017-08-09T00:16:44.121Z,85.9
2017-08-09T00:17:45.499Z,86.2
2017-08-09T00:18:46.875Z,86.2
2017-08-09T00:19:48.275Z,85.4
2017-08-09T00:20:49.642Z,85.0
2017-08-09T00:21:51.023Z,85.8
2017-08-09T00:22:52.409Z,85.9
2017-08-09T00:23:53.792Z,85.8
2017-08-09T00:24:55.174Z,86.0
2017-08-09T00:25:56.553Z,86.4
2017-08-09T00:26:57.927Z,86.1
2017-08-09T00:28:00.313Z,86.0
2017-08-09T00:29:01.687Z,85.3
2017-08-09T00:30:03.071Z,85.7
2017-08-09T00:31:04.482Z,85.8
2017-08-09T00:32:05.845Z,86.0
2017-08-09T00:33:07.228Z,85.6
2017-08-09T00:34:08.613Z,85.9
2017-08-09T00:35:09.990Z,86.0
2017-08-09T00:36:11.403Z,85.8
2017-08-09T00:37:12.780Z,84.5
2017-08-09T00:38:14.156Z,83.4
2017-08-09T00:39:15.532Z,84.4
2017-08-09T00:40:16.916Z,84.0
2017-08-09T00:41:18.292Z,84.0
2017-08-09T00:42:19.681Z,84.1
2017-08-09T00:43:21.061Z,84.4
2017-08-09T00:44:22.434Z,84.8
2017-08-09T00:45:23.830Z,84.6
2017-08-09T00:46:25.208Z,83.8
2017-08-09T00:47:26.578Z,83.8
2017-08-09T00:48:27.960Z,83.9
2017-08-09T00:49:29.334Z,83.7
2017-08-09T00:50:30.727Z,83.9
2017-08-09T00:51:32.098Z,84.7
2017-08-09T00:52:33.486Z,85.0
2017-08-09T00:53:34.872Z,85.4
2017-08-09T00:54:37.269Z,85.3
2017-08-09T00:55:38.647Z,84.8
2017-08-09T00:56:40.033Z,84.7
2017-08-09T00:57:41.402Z,84.8
2017-08-09T00:58:42.789Z,84.2
2017-08-09T00:59:44.173Z,84.8
2017-08-09T01:00:45.558Z,83.9
2017-08-09T01:01:46.929Z,83.4
2017-08-09T01:02:48.326Z,83.8
2017-08-09T01:03:49.690Z,83.9
2017-08-09T01:04:51.076Z,83.2
2017-08-09T01:05:52.465Z,82.7
2017-08-09T01:06:53.847Z,83.1
2017-08-09T01:07:55.243Z,81.6
2017-08-09T01:08:56.619Z,82.0
2017-08-09T01:09:57.993Z,81.8
2017-08-09T01:10:59.383Z,82.3
2017-08-09T01:12:00.772Z,82.1
2017-08-09T01:13:02.164Z,81.8
2017-08-09T01:14:03.538Z,82.0
2017-08-09T01:15:04.964Z,82.0
2017-08-09T01:16:06.336Z,83.0
2017-08-09T01:17:07.719Z,81.6
2017-08-09T01:18:09.109Z,82.0
2017-08-09T01:19:10.489Z,81.5
2017-08-09T01:20:11.888Z,82.1
2017-08-09T01:21:13.277Z,81.6
2017-08-09T01:22:14.671Z,81.7
2017-08-09T01:23:16.050Z,81.8
2017-08-09T01:24:17.439Z,82.0
2017-08-09T01:25:18.836Z,81.8
2017-08-09T01:26:20.203Z,81.4
2017-08-09T01:27:21.578Z,82.0
2017-08-09T01:28:22.967Z,82.2
2017-08-09T01:29:24.349Z,81.9
2017-08-09T01:30:25.732Z,81.7
2017-08-09T01:31:27.119Z,81.8
2017-08-09T01:32:28.516Z,83.0
2017-08-09T01:33:29.903Z,81.5
2017-08-09T01:34:31.305Z,81.6
2017-08-09T01:35:32.704Z,81.8
2017-08-09T01:36:34.100Z,82.0
2017-08-09T01:37:35.471Z,82.1
2017-08-09T01:38:36.876Z,82.1
2017-08-09T01:39:38.320Z,81.4
2017-08-09T01:40:39.716Z,81.8
2017-08-09T01:41:41.130Z,81.8
2017-08-09T01:42:42.542Z,81.8
2017-08-09T01:43:44.004Z,82.0
2017-08-09T01:44:45.448Z,81.9
2017-08-09T01:45:46.972Z,82.7
2017-08-09T01:46:48.506Z,82.7
2017-08-09T01:47:50.118Z,83.5
2017-08-09T01:48:51.736Z,82.7
2017-08-09T01:49:53.480Z,81.7
2017-08-09T01:50:55.093Z,82.7
2017-08-09T01:51:56.664Z,82.9
2017-08-09T01:52:58.248Z,83.0
2017-08-09T01:54:00.801Z,83.3
2017-08-09T01:55:02.406Z,83.2
2017-08-09T01:56:03.954Z,82.9
2017-08-09T01:57:05.511Z,83.0
2017-08-09T01:58:07.073Z,83.3
2017-08-09T01:59:08.691Z,83.3
2017-08-09T02:00:10.293Z,83.5
2017-08-09T02:01:11.893Z,83.1
2017-08-09T02:02:13.474Z,83.7
2017-08-09T02:03:15.041Z,83.3
2017-08-09T02:04:16.602Z,83.9
2017-08-09T02:05:18.214Z,83.3
2017-08-09T02:06:19.810Z,83.6
2017-08-09T02:07:21.374Z,83.4
2017-08-09T02:08:22.975Z,83.7
2017-08-09T02:09:24.544Z,83.8
2017-08-09T02:10:26.142Z,83.6
2017-08-09T02:11:27.755Z,84.2
2017-08-09T02:12:29.336Z,84.3
2017-08-09T02:13:30.928Z,83.8
2017-08-09T02:14:32.565Z,83.9
2017-08-09T02:15:34.133Z,83.8
2017-08-09T02:16:35.723Z,83.9
2017-08-09T02:17:37.361Z,84.5
2017-08-09T02:18:39.020Z,84.8
2017-08-09T02:19:40.590Z,84.2
2017-08-09T02:20:42.163Z,84.6
2017-08-09T02:21:43.772Z,84.7
2017-08-09T02:22:45.415Z,84.5
2017-08-09T02:23:46.981Z,84.8
2017-08-09T02:24:48.541Z,84.6
2017-08-09T02:25:50.094Z,84.8
2017-08-09T02:26:51.719Z,84.6
2017-08-09T02:27:53.274Z,84.4
2017-08-09T02:28:54.934Z,84.6
2017-08-09T02:29:56.503Z,84.5
2017-08-09T02:30:58.090Z,84.9
2017-08-09T02:31:59.676Z,84.9
2017-08-09T02:33:01.308Z,84.4
2017-08-09T02:34:02.886Z,84.7
2017-08-09T02:35:04.476Z,84.2
2017-08-09T02:36:06.008Z,84.3
2017-08-09T02:37:07.627Z,84.5
2017-08-09T02:38:09.222Z,84.7
2017-08-09T02:39:11.804Z,84.4
2017-08-09T02:40:13.382Z,85.1
2017-08-09T02:41:14.953Z,85.4
2017-08-09T02:42:16.462Z,84.3
2017-08-09T02:43:18.061Z,84.7
2017-08-09T02:44:19.540Z,84.7
2017-08-09T02:45:21.099Z,85.0
2017-08-09T02:46:22.617Z,85.1
2017-08-09T02:47:24.219Z,85.9
2017-08-09T02:48:25.835Z,85.6
2017-08-09T02:49:27.478Z,85.4
2017-08-09T02:50:29.041Z,85.5
2017-08-09T02:51:30.630Z,85.2
2017-08-09T02:52:32.245Z,85.5
2017-08-09T02:53:33.857Z,85.5
2017-08-09T02:54:35.463Z,85.0
2017-08-09T02:55:37.070Z,85.4
2017-08-09T02:56:38.668Z,85.5
2017-08-09T02:57:40.305Z,85.4
2017-08-09T02:58:41.886Z,86.3
2017-08-09T02:59:43.488Z,86.4
2017-08-09T03:00:45.088Z,86.2
2017-08-09T03:01:46.684Z,85.6
2017-08-09T03:02:48.244Z,86.4
2017-08-09T03:03:49.876Z,85.5
2017-08-09T03:04:51.438Z,85.7
2017-08-09T03:05:53.032Z,86.0
2017-08-09T03:06:54.618Z,85.8
2017-08-09T03:07:56.237Z,86.0
2017-08-09T03:08:57.853Z,85.9
2017-08-09T03:09:59.453Z,85.9
2017-08-09T03:11:01.053Z,85.7
2017-08-09T03:12:03.653Z,86.0
2017-08-09T03:13:05.179Z,87.0
2017-08-09T03:14:06.771Z,86.2
2017-08-09T03:15:08.415Z,86.6
2017-08-09T03:16:10.035Z,85.9
2017-08-09T03:17:11.627Z,86.3
2017-08-09T03:18:13.237Z,86.4
2017-08-09T03:19:14.886Z,86.1
2017-08-09T03:20:16.522Z,86.6
2017-08-09T03:21:18.133Z,85.8
2017-08-09T03:22:19.782Z,86.2
2017-08-09T03:23:21.391Z,87.0
2017-08-09T03:24:23.014Z,86.9
2017-08-09T03:25:24.610Z,87.5
2017-08-09T03:26:26.193Z,88.0
2017-08-09T03:27:27.767Z,87.5
2017-08-09T03:28:29.335Z,87.9
2017-08-09T03:29:30.905Z,87.5
2017-08-09T03:30:32.478Z,87.8
2017-08-09T03:31:34.089Z,87.9
2017-08-09T03:32:35.652Z,88.6
2017-08-09T03:33:37.267Z,88.5
2017-08-09T03:34:38.921Z,88.4
2017-08-09T03:35:40.505Z,88.4
2017-08-09T03:36:42.158Z,88.3
2017-08-09T03:37:43.770Z,87.7
2017-08-09T03:38:45.368Z,88.4
2017-08-09T03:39:46.930Z,87.8
2017-08-09T03:40:48.543Z,87.6
2017-08-09T03:41:50.148Z,87.9
2017-08-09T03:42:51.783Z,87.6
2017-08-09T03:43:53.345Z,89.3
2017-08-09T03:44:54.969Z,88.8
2017-08-09T03:45:56.657Z,88.8
2017-08-09T03:46:58.233Z,88.9
2017-08-09T03:47:59.785Z,89.0
2017-08-09T03:49:01.376Z,87.6
2017-08-09T03:50:02.931Z,88.0
2017-08-09T03:51:04.589Z,87.6
2017-08-09T03:52:06.162Z,87.9
2017-08-09T03:53:07.866Z,87.8
2017-08-09T03:54:09.652Z,88.9
2017-08-09T03:55:11.400Z,89.0
2017-08-09T03:56:13.210Z,89.0
2017-08-09T03:57:14.775Z,88.4
2017-08-09T03:58:16.334Z,89.2
2017-08-09T03:59:17.958Z,89.3
2017-08-09T04:00:19.596Z,89.5
2017-08-09T04:01:21.157Z,88.5
2017-08-09T04:02:22.713Z,88.5
2017-08-09T04:03:24.363Z,89.1
2017-08-09T04:04:26.033Z,89.0
2017-08-09T04:05:27.611Z,89.0
2017-08-09T04:06:29.242Z,88.4
2017-08-09T04:07:30.928Z,89.3
2017-08-09T04:08:32.509Z,88.7
2017-08-09T04:09:34.112Z,89.0
2017-08-09T04:10:35.754Z,89.5
2017-08-09T04:11:37.432Z,89.1
2017-08-09T04:12:39.126Z,88.6
2017-08-09T04:13:40.793Z,89.3
2017-08-09T04:14:42.424Z,89.6
2017-08-09T04:15:43.981Z,89.2
2017-08-09T04:16:45.546Z,89.1
2017-08-09T04:17:47.221Z,89.0
2017-08-09T04:18:48.819Z,87.9
2017-08-09T04:19:50.436Z,88.5
2017-08-09T04:20:51.983Z,88.8
2017-08-09T04:21:53.614Z,89.1
2017-08-09T04:22:55.120Z,88.9
2017-08-09T04:23:56.794Z,89.0
2017-08-09T04:24:58.357Z,89.4
2017-08-09T04:25:59.952Z,89.8
2017-08-09T04:27:01.503Z,89.4
2017-08-09T04:28:04.118Z,89.1
2017-08-09T04:29:05.669Z,89.0
2017-08-09T04:30:07.227Z,87.8
2017-08-09T04:31:08.831Z,86.5
2017-08-09T04:32:10.392Z,85.5
2017-08-09T04:33:11.930Z,86.3
2017-08-09T04:34:13.541Z,86.9
2017-08-09T04:35:15.167Z,87.8
2017-08-09T04:36:16.727Z,88.1
2017-08-09T04:37:18.316Z,87.4
2017-08-09T04:38:19.935Z,87.2
2017-08-09T04:39:21.516Z,86.9
2017-08-09T04:40:23.123Z,87.7
2017-08-09T04:41:24.693Z,88.8
2017-08-09T04:42:26.305Z,89.0
2017-08-09T04:43:27.862Z,88.9
2017-08-09T04:44:29.487Z,89.3
2017-08-09T04:45:31.073Z,88.5
2017-08-09T04:46:32.616Z,88.3
2017-08-09T04:47:34.176Z,88.0
2017-08-09T04:48:35.778Z,88.0
2017-08-09T04:49:37.344Z,88.0
2017-08-09T04:50:38.922Z,87.9
2017-08-09T04:51:40.465Z,87.8
2017-08-09T04:52:42.021Z,88.3
2017-08-09T04:53:43.580Z,88.9
2017-08-09T04:54:45.137Z,89.0
2017-08-09T04:55:46.651Z,88.8
2017-08-09T04:56:48.209Z,88.7
2017-08-09T04:57:49.784Z,88.7
2017-08-09T04:58:51.363Z,88.9
2017-08-09T04:59:52.922Z,88.4
2017-08-09T05:00:54.536Z,88.0
2017-08-09T05:01:56.085Z,88.1
2017-08-09T05:02:57.656Z,89.2
2017-08-09T05:03:59.287Z,89.1
2017-08-09T05:05:00.824Z,89.6
2017-08-09T05:06:02.350Z,89.4
2017-08-09T05:07:03.910Z,89.7
2017-08-09T05:08:05.455Z,89.5
2017-08-09T05:09:07.061Z,88.9
2017-08-09T05:10:08.741Z,89.2
2017-08-09T05:11:10.332Z,89.2
2017-08-09T05:12:11.913Z,89.6
2017-08-09T05:13:13.473Z,89.1
2017-08-09T05:14:15.039Z,89.3
2017-08-09T05:15:16.602Z,89.4
2017-08-09T05:16:18.171Z,89.9
2017-08-09T05:17:19.756Z,89.6
2017-08-09T05:18:21.340Z,90.2
2017-08-09T05:19:22.884Z,89.1
2017-08-09T05:20:24.420Z,89.1
2017-08-09T05:21:25.980Z,89.0
2017-08-09T05:22:27.496Z,89.2
2017-08-09T05:23:29.110Z,89.1
2017-08-09T05:24:30.753Z,89.1
2017-08-09T05:25:32.318Z,88.3
2017-08-09T05:26:33.839Z,88.8
2017-08-09T05:27:35.380Z,89.5
2017-08-09T05:28:36.881Z,89.3
2017-08-09T05:29:38.425Z,89.1
2017-08-09T05:30:39.946Z,88.7
2017-08-09T05:31:41.423Z,88.5
2017-08-09T05:32:42.923Z,88.3
2017-08-09T05:33:44.429Z,88.1
2017-08-09T05:34:46.003Z,88.0
2017-08-09T05:35:47.541Z,88.1
2017-08-09T05:36:49.099Z,89.4
2017-08-09T05:37:50.702Z,89.9
2017-08-09T05:38:52.288Z,90.1
2017-08-09T05:39:53.860Z,90.2
2017-08-09T05:40:55.376Z,89.1
2017-08-09T05:41:56.941Z,89.3
2017-08-09T05:42:58.526Z,88.9
2017-08-09T05:44:01.099Z,88.4
2017-08-09T05:45:02.680Z,89.4
2017-08-09T05:46:04.524Z,89.0
2017-08-09T05:47:06.088Z,89.0
2017-08-09T05:48:07.648Z,88.3
2017-08-09T05:49:09.223Z,88.8
2017-08-09T05:50:10.756Z,89.1
2017-08-09T05:51:12.284Z,88.8
2017-08-09T05:52:13.794Z,89.1
2017-08-09T05:53:15.346Z,89.0
2017-08-09T05:54:16.927Z,89.3
2017-08-09T05:55:18.445Z,88.4
2017-08-09T05:56:19.997Z,88.8
2017-08-09T05:57:21.522Z,88.9
2017-08-09T05:58:23.042Z,89.3
2017-08-09T05:59:24.644Z,88.2
2017-08-09T06:00:26.219Z,88.5
2017-08-09T06:01:27.841Z,89.2
2017-08-09T06:02:29.442Z,88.3
2017-08-09T06:03:30.955Z,88.8
2017-08-09T06:04:32.502Z,88.6
2017-08-09T06:05:34.057Z,88.5
2017-08-09T06:06:35.579Z,88.4
2017-08-09T06:07:37.155Z,89.0
2017-08-09T06:08:38.724Z,88.5
2017-08-09T06:09:40.221Z,88.5
2017-08-09T06:10:41.777Z,88.8
2017-08-09T06:11:43.249Z,89.2
2017-08-09T06:12:44.756Z,88.3
2017-08-09T06:13:46.293Z,87.8
2017-08-09T06:14:47.900Z,86.5
2017-08-09T06:15:49.445Z,84.5
2017-08-09T06:16:50.959Z,82.7
2017-08-09T06:17:52.539Z,81.9
2017-08-09T06:18:54.161Z,80.6
2017-08-09T06:19:55.621Z,78.8
2017-08-09T06:20:57.033Z,77.3
2017-08-09T06:21:58.495Z,77.5
2017-08-09T06:22:59.874Z,76.6
2017-08-09T06:24:01.328Z,75.1
2017-08-09T06:25:02.831Z,74.2
2017-08-09T06:26:04.256Z,74.4
2017-08-09T06:27:05.728Z,74.7
2017-08-09T06:28:07.319Z,74.2
2017-08-09T06:29:08.900Z,73.9
2017-08-09T06:30:10.467Z,74.9
2017-08-09T06:31:12.069Z,75.3
2017-08-09T06:32:13.676Z,73.8
2017-08-09T06:33:15.301Z,73.1
2017-08-09T06:34:16.905Z,73.5
2017-08-09T06:35:18.471Z,72.6
2017-08-09T06:36:20.047Z,72.5
2017-08-09T06:37:21.654Z,73.3
2017-08-09T06:38:23.280Z,71.1
2017-08-09T06:39:24.842Z,70.6
2017-08-09T06:40:26.420Z,70.2
2017-08-09T06:41:27.992Z,70.2
2017-08-09T06:42:29.552Z,71.0
2017-08-09T06:43:31.160Z,70.5
2017-08-09T06:44:32.744Z,70.5
2017-08-09T06:45:34.291Z,70.1
2017-08-09T06:46:35.835Z,69.8
2017-08-09T06:47:37.403Z,68.8
2017-08-09T06:48:39.038Z,69.2
2017-08-09T06:49:40.601Z,69.4
2017-08-09T06:50:42.182Z,69.4
2017-08-09T06:51:43.786Z,69.3
2017-08-09T06:52:45.312Z,68.2
2017-08-09T06:53:46.892Z,65.9
2017-08-09T06:54:48.428Z,66.9
2017-08-09T06:55:49.953Z,65.9
2017-08-09T06:56:51.496Z,66.4
2017-08-09T06:57:53.063Z,67.0
2017-08-09T06:58:54.585Z,67.1
2017-08-09T06:59:56.193Z,67.9
2017-08-09T07:01:36.470Z,67.7
2017-08-09T07:02:37.862Z,66.9
2017-08-09T07:03:39.254Z,67.5
2017-08-09T07:04:40.710Z,67.0
2017-08-09T07:05:42.149Z,67.1
2017-08-09T07:06:43.565Z,67.3
2017-08-09T07:07:44.990Z,66.0
2017-08-09T07:08:46.382Z,65.4
2017-08-09T07:09:47.777Z,66.1
2017-08-09T07:10:49.189Z,66.1
2017-08-09T07:11:50.612Z,66.1
2017-08-09T07:12:52.009Z,65.9
2017-08-09T07:13:53.413Z,65.0
2017-08-09T07:14:54.832Z,65.9
2017-08-09T07:15:56.298Z,64.9
2017-08-09T07:16:57.695Z,64.3
2017-08-09T07:17:59.112Z,62.6
2017-08-09T07:19:00.519Z,62.6
2017-08-09T07:20:01.962Z,63.6
2017-08-09T07:21:03.356Z,63.8
2017-08-09T07:22:04.749Z,62.0
2017-08-09T07:23:06.195Z,61.9
2017-08-09T07:24:07.628Z,61.4
2017-08-09T07:25:09.045Z,61.4
2017-08-09T07:26:10.470Z,60.5
2017-08-09T07:27:11.872Z,61.6
2017-08-09T07:28:13.282Z,61.3
2017-08-09T07:29:14.718Z,60.7
2017-08-09T07:30:16.115Z,61.0
2017-08-09T07:31:17.525Z,61.2
2017-08-09T07:32:18.975Z,60.8
2017-08-09T07:33:20.469Z,61.1
2017-08-09T07:34:21.973Z,60.3
2017-08-09T07:35:23.483Z,60.2
2017-08-09T07:36:25.158Z,59.7
2017-08-09T07:37:26.814Z,58.9
2017-08-09T07:38:28.466Z,60.5
2017-08-09T07:39:30.061Z,59.8
2017-08-09T07:40:31.682Z,59.4
2017-08-09T07:41:33.297Z,59.1
2017-08-09T07:42:34.905Z,57.3
2017-08-09T07:43:36.538Z,56.6
2017-08-09T07:44:38.124Z,56.6
2017-08-09T07:45:39.722Z,57.1
2017-08-09T07:46:41.371Z,57.4
2017-08-09T07:47:42.988Z,58.9
2017-08-09T07:48:44.559Z,57.0
2017-08-09T07:49:46.180Z,56.9
2017-08-09T07:50:47.689Z,56.8
2017-08-09T07:51:49.372Z,55.8
2017-08-09T07:52:50.886Z,56.9
2017-08-09T07:53:52.470Z,56.5
2017-08-09T07:54:54.011Z,56.5
2017-08-09T07:55:55.580Z,55.4
2017-08-09T07:56:57.145Z,55.6
2017-08-09T07:57:58.713Z,55.1
2017-08-09T07:59:01.308Z,55.4
2017-08-09T08:00:02.839Z,55.6
2017-08-09T08:01:36.476Z,54.9
2017-08-09T08:02:37.921Z,53.8
2017-08-09T08:03:39.318Z,54.8
2017-08-09T08:04:40.747Z,54.1
2017-08-09T08:05:42.148Z,53.7
2017-08-09T08:06:43.554Z,53.7
2017-08-09T08:07:44.959Z,53.5
2017-08-09T08:08:46.360Z,54.4
2017-08-09T08:09:47.795Z,55.6
2017-08-09T08:10:49.193Z,54.1
2017-08-09T08:11:50.609Z,52.6
2017-08-09T08:12:52.009Z,52.5
2017-08-09T08:13:53.414Z,53.6
2017-08-09T08:14:54.810Z,53.4
2017-08-09T08:15:56.204Z,53.6
2017-08-09T08:16:57.607Z,52.8
2017-08-09T08:17:59.002Z,53.5
2017-08-09T08:19:00.423Z,52.3
2017-08-09T08:20:01.841Z,52.9
2017-08-09T08:21:03.246Z,52.5
2017-08-09T08:22:04.749Z,52.2
2017-08-09T08:23:06.219Z,53.7
2017-08-09T08:24:07.696Z,53.2
2017-08-09T08:25:09.097Z,54.1
2017-08-09T08:26:10.533Z,54.2
2017-08-09T08:27:11.950Z,53.4
2017-08-09T08:28:13.368Z,53.3
2017-08-09T08:29:14.773Z,53.3
2017-08-09T08:30:16.179Z,54.4
2017-08-09T08:31:17.701Z,54.4
2017-08-09T08:32:19.119Z,55.1
2017-08-09T08:33:20.522Z,55.3
2017-08-09T08:34:22.068Z,54.5
2017-08-09T08:35:23.538Z,53.7
2017-08-09T08:36:24.943Z,54.0
2017-08-09T08:37:26.349Z,53.3
2017-08-09T08:38:27.752Z,53.5
2017-08-09T08:39:29.183Z,52.5
2017-08-09T08:40:30.616Z,52.4
2017-08-09T08:41:32.027Z,51.7
2017-08-09T08:42:33.430Z,51.2
2017-08-09T08:43:34.852Z,52.2
2017-08-09T08:44:36.269Z,52.4
2017-08-09T08:45:37.709Z,53.3
2017-08-09T08:46:39.149Z,53.3
2017-08-09T08:47:40.548Z,53.3
2017-08-09T08:48:41.960Z,52.9
2017-08-09T08:49:43.368Z,53.4
2017-08-09T08:50:45.796Z,53.5
2017-08-09T08:51:47.207Z,53.3
2017-08-09T08:52:48.608Z,52.8
2017-08-09T08:53:50.007Z,53.9
2017-08-09T08:54:51.572Z,53.9
2017-08-09T08:55:53.119Z,52.4
2017-08-09T08:56:54.515Z,52.6
2017-08-09T08:57:55.925Z,51.3
2017-08-09T08:58:57.390Z,50.7
2017-08-09T08:59:58.863Z,51.8
2017-08-09T09:01:36.616Z,50.3
2017-08-09T09:02:37.993Z,50.6
2017-08-09T09:03:39.400Z,51.6
2017-08-09T09:04:40.821Z,51.3
2017-08-09T09:05:42.228Z,51.7
2017-08-09T09:06:43.628Z,51.2
2017-08-09T09:07:45.067Z,49.6
2017-08-09T09:08:46.534Z,50.4
2017-08-09T09:09:48.007Z,51.5
2017-08-09T09:10:49.488Z,53.4
2017-08-09T09:11:51.062Z,52.0
2017-08-09T09:12:52.624Z,52.5
2017-08-09T09:13:54.199Z,52.7
2017-08-09T09:14:55.733Z,53.7
2017-08-09T09:15:58.388Z,52.5
2017-08-09T09:16:59.979Z,52.3
2017-08-09T09:18:01.639Z,52.6
2017-08-09T09:19:03.234Z,53.4
2017-08-09T09:20:04.933Z,52.2
2017-08-09T09:21:06.590Z,53.8
2017-08-09T09:22:08.254Z,53.2
2017-08-09T09:23:09.933Z,52.7
2017-08-09T09:24:11.490Z,52.5
2017-08-09T09:25:13.121Z,51.0
2017-08-09T09:26:14.679Z,50.6
2017-08-09T09:27:16.243Z,51.7
2017-08-09T09:28:17.813Z,52.3
2017-08-09T09:29:19.360Z,51.3
2017-08-09T09:30:21.000Z,51.2
2017-08-09T09:31:22.578Z,50.4
2017-08-09T09:32:24.180Z,50.4
2017-08-09T09:33:25.776Z,49.7
2017-08-09T09:34:27.408Z,50.3
2017-08-09T09:35:29.029Z,49.2
2017-08-09T09:36:30.656Z,50.4
2017-08-09T09:37:32.204Z,50.4
2017-08-09T09:38:33.768Z,51.3
2017-08-09T09:39:35.314Z,49.5
2017-08-09T09:40:36.995Z,49.6
2017-08-09T09:41:38.560Z,49.7
2017-08-09T09:42:40.186Z,49.8
2017-08-09T09:43:41.790Z,50.6
2017-08-09T09:44:43.365Z,51.2
2017-08-09T09:45:45.002Z,48.4
2017-08-09T09:46:46.554Z,49.2
2017-08-09T09:47:48.154Z,48.1
2017-08-09T09:48:49.828Z,49.3
2017-08-09T09:49:51.418Z,49.4
2017-08-09T09:50:53.123Z,49.7
2017-08-09T09:51:54.706Z,49.7
2017-08-09T09:52:56.431Z,49.0
2017-08-09T09:53:58.024Z,49.5
2017-08-09T09:54:59.676Z,49.3
2017-08-09T09:56:01.328Z,48.9
2017-08-09T09:57:02.951Z,47.9
2017-08-09T09:58:04.552Z,47.9
2017-08-09T09:59:06.156Z,48.2
2017-08-09T10:00:07.823Z,48.0
2017-08-09T10:01:36.614Z,47.3
2017-08-09T10:02:38.021Z,47.4
2017-08-09T10:03:39.436Z,45.9
2017-08-09T10:04:40.878Z,45.3
2017-08-09T10:05:42.292Z,46.2
2017-08-09T10:06:43.735Z,45.7
2017-08-09T10:07:46.486Z,45.6
2017-08-09T10:08:48.144Z,45.8
2017-08-09T10:09:49.689Z,48.0
2017-08-09T10:10:51.410Z,47.3
2017-08-09T10:11:53.074Z,46.7
2017-08-09T10:12:54.693Z,46.2
2017-08-09T10:13:56.433Z,45.5
2017-08-09T10:14:58.136Z,46.0
2017-08-09T10:15:59.901Z,47.3
2017-08-09T10:17:01.609Z,46.8
2017-08-09T10:18:03.379Z,47.6
2017-08-09T10:19:05.039Z,47.3
2017-08-09T10:20:06.822Z,46.6
2017-08-09T10:21:08.615Z,46.2
2017-08-09T10:22:10.315Z,45.8
2017-08-09T10:23:11.970Z,45.5
2017-08-09T10:24:14.667Z,45.9
2017-08-09T10:25:16.323Z,46.8
2017-08-09T10:26:17.997Z,46.1
2017-08-09T10:27:19.671Z,46.5
2017-08-09T10:28:21.242Z,46.3
2017-08-09T10:29:22.905Z,47.4
2017-08-09T10:30:24.527Z,47.8
2017-08-09T10:31:26.220Z,46.6
2017-08-09T10:32:27.861Z,47.3
2017-08-09T10:33:29.528Z,46.7
2017-08-09T10:34:31.239Z,46.7
2017-08-09T10:35:32.901Z,47.6
2017-08-09T10:36:34.717Z,47.5
2017-08-09T10:37:36.382Z,46.7
2017-08-09T10:38:38.035Z,46.4
2017-08-09T10:39:39.708Z,47.3
2017-08-09T10:40:41.398Z,45.6
2017-08-09T10:41:43.026Z,46.6
2017-08-09T10:42:44.773Z,46.4
2017-08-09T10:43:46.440Z,47.5
2017-08-09T10:44:48.114Z,47.7
2017-08-09T10:45:49.813Z,47.7
2017-08-09T10:46:51.575Z,46.3
2017-08-09T10:47:53.198Z,45.9
2017-08-09T10:48:54.869Z,45.8
2017-08-09T10:49:56.555Z,45.8
2017-08-09T10:50:58.250Z,45.0
2017-08-09T10:51:59.920Z,44.6
2017-08-09T10:53:01.597Z,44.6
2017-08-09T10:54:03.302Z,43.8
2017-08-09T10:55:05.010Z,44.0
2017-08-09T10:56:06.693Z,45.0
2017-08-09T10:57:08.368Z,43.8
2017-08-09T10:58:10.058Z,43.3
2017-08-09T10:59:11.714Z,43.4
2017-08-09T11:00:13.398Z,43.7
2017-08-09T11:01:15.083Z,43.8
2017-08-09T11:02:16.763Z,43.3
2017-08-09T11:03:18.393Z,43.7
2017-08-09T11:04:20.012Z,44.2
2017-08-09T11:05:21.681Z,45.2
2017-08-09T11:06:23.355Z,46.3
2017-08-09T11:07:25.006Z,45.4
2017-08-09T11:08:26.711Z,47.0
2017-08-09T11:09:28.353Z,46.2
2017-08-09T11:10:30.053Z,46.3
2017-08-09T11:11:31.731Z,44.2
2017-08-09T11:12:33.420Z,43.9
2017-08-09T11:13:35.122Z,43.5
2017-08-09T11:14:36.873Z,43.6
2017-08-09T11:15:38.639Z,42.5
2017-08-09T11:16:40.305Z,43.2
2017-08-09T11:17:41.971Z,44.8
2017-08-09T11:18:43.719Z,44.7
2017-08-09T11:19:45.323Z,45.2
2017-08-09T11:20:46.966Z,44.7
2017-08-09T11:21:50.592Z,44.3
2017-08-09T11:22:52.233Z,45.6
2017-08-09T11:23:53.900Z,45.9
2017-08-09T11:24:55.593Z,46.7
2017-08-09T11:25:57.218Z,46.1
2017-08-09T11:26:58.825Z,45.3
2017-08-09T11:28:00.468Z,44.6
2017-08-09T11:29:02.128Z,44.5
2017-08-09T11:30:03.776Z,45.0
2017-08-09T11:31:05.505Z,46.1
2017-08-09T11:32:07.250Z,44.8
2017-08-09T11:33:08.968Z,44.4
2017-08-09T11:34:10.643Z,43.6
2017-08-09T11:35:12.358Z,43.8
2017-08-09T11:36:15.045Z,42.9
2017-08-09T11:37:16.687Z,42.8
2017-08-09T11:38:18.473Z,42.9
2017-08-09T11:39:20.187Z,42.1
2017-08-09T11:40:22.135Z,42.8
2017-08-09T11:41:23.876Z,42.5
2017-08-09T11:42:25.762Z,43.6
2017-08-09T11:43:27.400Z,44.6
2017-08-09T11:44:29.123Z,45.1
2017-08-09T11:45:30.771Z,45.2
2017-08-09T11:46:33.500Z,44.7
2017-08-09T11:47:35.254Z,44.4
2017-08-09T11:48:37.012Z,43.2
2017-08-09T11:49:38.794Z,41.6
2017-08-09T11:50:40.509Z,41.9
2017-08-09T11:51:42.186Z,42.3
2017-08-09T11:52:43.852Z,43.3
2017-08-09T11:53:45.482Z,42.9
2017-08-09T11:54:47.130Z,43.8
2017-08-09T11:55:48.842Z,42.7
2017-08-09T11:56:50.522Z,42.7
2017-08-09T11:57:52.234Z,43.9
2017-08-09T11:58:54.093Z,42.9
2017-08-09T11:59:55.880Z,42.8
2017-08-09T12:00:57.596Z,43.8
2017-08-09T12:01:59.320Z,42.3
2017-08-09T12:03:01.156Z,41.6
2017-08-09T12:04:02.814Z,41.9
2017-08-09T12:05:04.659Z,41.7
2017-08-09T12:06:06.381Z,42.4
2017-08-09T12:07:08.274Z,42.3
2017-08-09T12:08:10.085Z,42.6
2017-08-09T12:09:11.749Z,42.8
2017-08-09T12:10:13.450Z,41.9
2017-08-09T12:11:15.085Z,42.9
2017-08-09T12:12:16.900Z,41.4
2017-08-09T12:13:18.668Z,41.9
2017-08-09T12:14:20.491Z,42.2
2017-08-09T12:15:22.170Z,42.6
2017-08-09T12:16:23.825Z,42.8
2017-08-09T12:17:25.646Z,42.6
2017-08-09T12:18:27.360Z,42.3
2017-08-09T12:19:29.132Z,41.9
2017-08-09T12:20:30.950Z,42.0
2017-08-09T12:21:32.653Z,41.1
2017-08-09T12:22:34.353Z,41.8
2017-08-09T12:23:36.127Z,40.8
2017-08-09T12:24:37.955Z,40.7
2017-08-09T12:25:39.778Z,41.4
2017-08-09T12:26:41.577Z,41.6
2017-08-09T12:27:43.345Z,41.0
2017-08-09T12:28:45.076Z,42.1
2017-08-09T12:29:46.806Z,41.2
2017-08-09T12:30:48.775Z,41.6
2017-08-09T12:31:50.507Z,40.9
2017-08-09T12:32:52.343Z,41.5
2017-08-09T12:33:54.007Z,40.7
2017-08-09T12:34:56.027Z,39.8
2017-08-09T12:35:57.813Z,41.2
2017-08-09T12:36:59.548Z,40.6
2017-08-09T12:38:01.283Z,40.8
2017-08-09T12:39:03.062Z,39.5
2017-08-09T12:40:04.779Z,40.6
2017-08-09T12:41:06.542Z,40.6
2017-08-09T12:42:08.373Z,40.5
2017-08-09T12:43:10.035Z,40.6
2017-08-09T12:44:11.830Z,40.9
2017-08-09T12:45:13.567Z,41.1
2017-08-09T12:46:15.278Z,39.8
2017-08-09T12:47:17.080Z,39.4
2017-08-09T12:48:18.820Z,39.5
2017-08-09T12:49:20.603Z,39.8
2017-08-09T12:50:22.285Z,40.5
2017-08-09T12:51:24.016Z,40.6
2017-08-09T12:52:25.834Z,41.1
2017-08-09T12:53:27.582Z,41.9
2017-08-09T12:54:29.342Z,42.2
2017-08-09T12:55:31.073Z,41.6
2017-08-09T12:56:32.743Z,41.4
2017-08-09T12:57:34.507Z,41.3
2017-08-09T12:58:36.441Z,43.2
2017-08-09T12:59:38.088Z,43.3
2017-08-09T13:00:39.791Z,43.0
2017-08-09T13:01:41.632Z,41.9
2017-08-09T13:02:43.302Z,42.0
2017-08-09T13:03:44.967Z,41.5
2017-08-09T13:04:46.680Z,42.7
2017-08-09T13:05:48.464Z,41.8
2017-08-09T13:06:50.140Z,41.4
2017-08-09T13:07:51.908Z,42.1
2017-08-09T13:08:53.707Z,42.5
2017-08-09T13:09:55.394Z,42.5
2017-08-09T13:10:57.101Z,41.9
2017-08-09T13:11:58.878Z,42.9
2017-08-09T13:13:00.653Z,42.7
2017-08-09T13:14:02.333Z,41.2
2017-08-09T13:15:04.021Z,41.2
2017-08-09T13:16:05.826Z,40.2
2017-08-09T13:17:07.608Z,39.5
2017-08-09T13:18:09.273Z,39.4
2017-08-09T13:19:10.930Z,38.8
2017-08-09T13:20:12.602Z,38.8
2017-08-09T13:21:14.328Z,39.4
2017-08-09T13:22:16.096Z,39.5
2017-08-09T13:23:17.789Z,39.6
2017-08-09T13:24:19.482Z,39.5
2017-08-09T13:25:21.188Z,39.7
2017-08-09T13:26:22.848Z,41.5
2017-08-09T13:27:24.557Z,41.0
2017-08-09T13:28:26.306Z,41.8
2017-08-09T13:29:28.044Z,41.2
2017-08-09T13:30:29.804Z,40.0
2017-08-09T13:31:31.530Z,39.5
2017-08-09T13:32:33.286Z,39.4
2017-08-09T13:33:34.932Z,40.0
2017-08-09T13:34:36.661Z,40.0
2017-08-09T13:35:38.399Z,39.1
2017-08-09T13:36:40.071Z,39.5
2017-08-09T13:37:42.012Z,38.9
2017-08-09T13:38:43.704Z,39.9
2017-08-09T13:39:45.507Z,40.0
2017-08-09T13:40:47.139Z,40.0
2017-08-09T13:41:48.874Z,39.7